Flight Track Log - Related Links

Times and Time Zones

All times are in EDT time to prevent confusion due to time zone crossing. See the SWA407 flight status page for this flight to view local times or setup timezone preferences in your user account.

Time Position Orientation Groundspeed Altitude Reporting Facility
EDT Latitude Longitude Course Direction KTS MPH feet Rate Location/Type
Tue 01:10:08 AM 32.7975 -117.2986 307° West 232 267 6,800  Level Los Angeles Center
Tue 01:11:09 AM 32.8581 -117.3856 310° West 278 320 12,500 5,016 Climbing Los Angeles Center
Tue 01:12:10 AM 32.9200 -117.4686 312° West 323 372 17,000 3,761 Climbing Los Angeles Center
Tue 01:13:23 AM 32.9800 -117.5547 310° West 337 388 20,900 3,600 Climbing Los Angeles Center
Tue 01:14:00 AM 33.1324 -117.7491 320° Northwest  Level FlightAware Approximate
Tue 01:14:25 AM 33.0772 -117.6469 322° Northwest 388 447 25,100  Level Los Angeles Center
Tue 01:15:27 AM 33.1975 -117.6628 354° North 430 495 28,400 1,918 Climbing Los Angeles Center
Tue 01:16:27 AM 33.3178 -117.6797 353° North 436 502 29,000 295 Climbing Los Angeles Center
Tue 01:17:29 AM 33.4383 -117.6969 353° North 437 503 29,000  Level Los Angeles Center
Tue 01:18:30 AM 33.5844 -117.7164 354° North 442 509 29,000  Level Los Angeles Center
Tue 01:19:31 AM 33.7097 -117.6700 17° North 500 575 29,000  Level Los Angeles Center
Tue 01:20:32 AM 33.8283 -117.5681 36° Northeast 528 608 29,000  Level Los Angeles Center
Tue 01:21:33 AM 33.9478 -117.4653 36° Northeast 531 611 29,000  Level Los Angeles Center
Tue 01:22:34 AM 34.0661 -117.3631 36° Northeast 528 608 29,000  Level Los Angeles Center
Tue 01:23:36 AM 34.1858 -117.2603 35° Northeast 530 610 29,000  Level Los Angeles Center
Tue 01:24:37 AM 34.3217 -117.1414 36° Northeast 530 610 29,000  Level Los Angeles Center
Tue 01:25:38 AM 34.4411 -117.0375 36° Northeast 532 612 29,000  Level Los Angeles Center
Tue 01:26:39 AM 34.5614 -116.9308 36° Northeast 537 618 29,000  Level Los Angeles Center
Tue 01:27:40 AM 34.6828 -116.8231 36° Northeast 542 624 29,000  Level Los Angeles Center
Tue 01:28:41 AM 34.8044 -116.7150 36° Northeast 547 629 29,000  Level Los Angeles Center
Tue 01:29:42 AM 34.9261 -116.6072 36° Northeast 545 627 29,000  Level Los Angeles Center
Tue 01:30:43 AM 35.0367 -116.4822 43° Northeast 552 635 29,000  Level Los Angeles Center
Tue 01:31:45 AM 35.1431 -116.3492 46° Northeast 552 635 29,000 -1,512 Level Los Angeles Center
Tue 01:32:46 AM 35.2481 -116.2200 45° Northeast 542 624 25,900 -3,393 Descending Los Angeles Center
Tue 01:33:47 AM 35.3608 -116.0739 47° Northeast 497 572 22,100 -3,393 Descending Los Angeles Center
Tue 01:34:48 AM 35.4517 -115.9603 46° Northeast 471 542 19,000 -2,852 Descending Los Angeles Center
Tue 01:35:49 AM 35.5308 -115.8622 45° Northeast 446 513 16,300 -2,508 Descending Los Angeles Center
Tue 01:36:50 AM 35.6094 -115.7617 46° Northeast 419 482 13,900 -1,623 Descending Los Angeles Center
Tue 01:37:51 AM 35.6783 -115.6758 45° Northeast 362 417 13,000 -443 Descending Los Angeles Center
Tue 01:38:52 AM 35.7456 -115.5900 46° Northeast 317 365 13,000  Level Los Angeles Center
Tue 01:39:53 AM 35.8367 -115.5697 10° North 315 362 13,000  Level Los Angeles Center
Tue 01:40:54 AM 35.9250 -115.5642 North 317 365 13,000 -246 Level Los Angeles Center
Tue 01:41:55 AM 35.9906 -115.5050 36° Northeast 314 361 12,500 -934 Descending Los Angeles Center
Tue 01:42:56 AM 36.0206 -115.4083 69° East 308 354 11,100 -934 Descending Los Angeles Center
Tue 01:43:57 AM 36.0264 -115.3150 86° East 290 334 10,600 -836 Descending Los Angeles Center
Tue 01:44:58 AM 36.0203 -115.2264 95° East 272 313 9,400 -1,279 Descending Los Angeles Center
Tue 01:45:59 AM 36.0150 -115.1400 94° East 262 302 8,000 -885 Descending Los Angeles Center
Tue 01:47:00 AM 36.0103 -115.0639 94° East 242 278 7,600 -738 Descending Los Angeles Center
Tue 01:48:01 AM 36.0058 -115.0008 95° East 206 237 6,500 -1,131 Descending Los Angeles Center
Tue 01:49:02 AM 36.0286 -114.9558 58° Northeast 211 243 5,300 -1,131 Descending Los Angeles Center
Tue 01:50:03 AM 36.0711 -114.9947 324° Northwest 194 223 4,200 -1,033 Descending Los Angeles Center
Tue 01:51:04 AM 36.0739 -115.0533 273° West 181 208 3,200 -823 Descending Los Angeles Center
Tue 01:52:07 AM 36.0736 -115.0972 270° West 115 132 2,500 -537 Descending Los Angeles Center
Tue 01:53:18 AM 36.0739 -115.1353 271° West 132 152 2,000 -423 Descending Los Angeles Center
Tue 01:55:00 AM 36.0667 -115.1500 270° West  Level FlightAware Approximate

Login

Don't have an account? Register now (free) for customized features, flight alerts, and more!